Aviation Digital Data Service (ADDS)

Output produced by METARs form (0119 UTC 17 July 2019)
found at http://www.aviationweather.gov/metar/data/
 
GABS 170100Z 20004KT 9999 FEW030 25/24 Q1016 NOSIG
TAF GABS 162300Z 1700/1806 22006KT 9999 FEW020 
     PROB40 
     TEMPO 1709/1715 08016G35KT 2000 SQ TSRA SCT020 FEW026CB 
     PROB40 
     TEMPO 1718/1724 06020G40KT 1200 SQ +TSRA BKN020 SCT026CB
       
TAF AMD GAGO 162300Z 1700/1724 22010KT 6000 FEW030 
     BECMG 1701/1703 09015G35KT 0600 BLDU TSRA BKN030 SCT040CB 
     BECMG 1712/1714 20008KT 6000 NSW NSC
       
GAMB 170000Z 00000KT CAVOK 30/22 Q1012
GANR 170000Z VRB02KT CAVOK 29/24 Q1014